createdAt,value
2023-05-21T00:00:31.070Z,10.73
2023-05-21T00:03:18.790Z,8.75
2023-05-21T00:05:47.355Z,8.88
2023-05-21T00:08:15.107Z,12.75
2023-05-21T00:10:42.859Z,10.50
2023-05-21T00:13:10.556Z,6.57
2023-05-21T00:15:38.476Z,7.72
2023-05-21T00:18:06.364Z,8.13
2023-05-21T00:20:33.571Z,7.03
2023-05-21T00:23:05.401Z,7.97
2023-05-21T00:25:32.498Z,8.43
2023-05-21T00:27:59.924Z,9.23
2023-05-21T00:30:26.914Z,8.00
2023-05-21T00:32:54.694Z,7.82
2023-05-21T00:35:21.853Z,7.43
2023-05-21T00:37:50.162Z,8.38
2023-05-21T00:40:18.976Z,9.40
2023-05-21T00:42:48.248Z,9.57
2023-05-21T00:45:15.450Z,7.63
2023-05-21T00:47:44.221Z,7.15
2023-05-21T00:50:12.073Z,6.60
2023-05-21T00:52:42.212Z,8.63
2023-05-21T00:55:11.039Z,10.80
2023-05-21T00:57:39.958Z,13.30
2023-05-21T01:00:08.953Z,7.60
2023-05-21T01:02:38.271Z,8.35
2023-05-21T01:05:07.113Z,10.05
2023-05-21T01:07:36.743Z,14.02
2023-05-21T01:10:06.475Z,10.32
2023-05-21T01:12:35.807Z,6.35
2023-05-21T01:15:04.192Z,10.88
2023-05-21T01:17:32.141Z,8.25
2023-05-21T01:20:00.873Z,12.00
2023-05-21T01:22:32.564Z,9.30
2023-05-21T01:25:02.851Z,8.65
2023-05-21T01:27:30.464Z,9.57
2023-05-21T01:29:57.725Z,7.15
2023-05-21T01:32:38.546Z,7.53
2023-05-21T01:35:10.156Z,9.68
2023-05-21T01:38:04.680Z,18.15
2023-05-21T01:40:39.118Z,8.43
2023-05-21T01:43:08.368Z,9.25
2023-05-21T01:45:39.636Z,8.68
2023-05-21T01:48:09.333Z,6.25
2023-05-21T01:50:38.193Z,8.63
2023-05-21T01:53:06.249Z,6.40
2023-05-21T01:55:33.499Z,7.47
2023-05-21T01:58:02.459Z,7.55
2023-05-21T02:00:32.561Z,7.85
2023-05-21T02:02:59.870Z,7.95
2023-05-21T02:05:27.219Z,10.00
2023-05-21T02:07:55.157Z,7.82
2023-05-21T02:10:22.918Z,6.80
2023-05-21T02:12:50.242Z,7.43
2023-05-21T02:15:20.070Z,7.32
2023-05-21T02:17:47.518Z,8.18
2023-05-21T02:20:14.659Z,5.35
2023-05-21T02:22:44.708Z,6.40
2023-05-21T02:25:13.485Z,10.30
2023-05-21T02:27:42.525Z,10.95
2023-05-21T02:30:11.400Z,8.27
2023-05-21T02:32:42.419Z,10.18
2023-05-21T02:35:12.326Z,6.25
2023-05-21T02:37:41.288Z,7.13
2023-05-21T02:40:10.243Z,15.27
2023-05-21T02:42:40.091Z,8.63
2023-05-21T02:45:12.197Z,7.18
2023-05-21T02:47:42.060Z,10.02
2023-05-21T02:50:09.958Z,6.40
2023-05-21T02:52:44.188Z,7.70
2023-05-21T02:55:11.767Z,8.07
2023-05-21T02:57:38.712Z,6.53
2023-05-21T03:00:07.846Z,11.27
2023-05-21T03:02:35.474Z,6.00
2023-05-21T03:05:03.215Z,9.80
2023-05-21T03:07:30.091Z,8.48
2023-05-21T03:09:57.658Z,16.80
2023-05-21T03:12:24.566Z,7.38
2023-05-21T03:14:53.175Z,7.47
2023-05-21T03:17:20.889Z,8.73
2023-05-21T03:19:49.354Z,7.88
2023-05-21T03:22:16.735Z,6.95
2023-05-21T03:24:46.358Z,7.90
2023-05-21T03:27:13.735Z,10.55
2023-05-21T03:29:42.319Z,8.38
2023-05-21T03:32:09.662Z,10.45
2023-05-21T03:34:37.793Z,8.88
2023-05-21T03:37:05.111Z,6.80
2023-05-21T03:39:34.286Z,6.28
2023-05-21T03:42:01.443Z,7.43
2023-05-21T03:44:43.812Z,6.57
2023-05-21T03:47:22.233Z,6.30
2023-05-21T03:49:50.819Z,7.68
2023-05-21T03:52:18.000Z,6.90
2023-05-21T03:54:45.408Z,8.48
2023-05-21T03:57:12.555Z,9.80
2023-05-21T03:59:40.856Z,9.02
2023-05-21T04:02:07.925Z,5.75
2023-05-21T04:04:35.784Z,7.05
2023-05-21T04:07:04.816Z,7.10
2023-05-21T04:09:32.245Z,7.40
2023-05-21T04:11:59.101Z,20.27
2023-05-21T04:14:26.647Z,7.50
2023-05-21T04:16:53.524Z,5.30
2023-05-21T04:19:21.982Z,9.00
2023-05-21T04:21:49.896Z,5.15
2023-05-21T04:24:18.707Z,7.38
2023-05-21T04:26:57.471Z,8.70
2023-05-21T04:29:25.974Z,9.32
2023-05-21T04:31:53.431Z,6.78
2023-05-21T04:34:21.721Z,6.93
2023-05-21T04:36:48.696Z,11.07
2023-05-21T04:39:17.138Z,9.32
2023-05-21T04:41:44.344Z,7.45
2023-05-21T04:44:15.385Z,5.70
2023-05-21T04:46:46.241Z,9.00
2023-05-21T04:49:14.392Z,6.20
2023-05-21T04:51:41.693Z,4.78
2023-05-21T04:54:09.524Z,8.70
2023-05-21T04:56:36.421Z,7.75
2023-05-21T04:59:05.460Z,8.65
2023-05-21T05:01:35.485Z,12.53
2023-05-21T05:04:02.903Z,5.45
2023-05-21T05:06:31.190Z,6.13
2023-05-21T05:08:58.937Z,6.47
2023-05-21T05:11:26.866Z,10.38
2023-05-21T05:13:54.340Z,6.47
2023-05-21T05:16:25.365Z,4.53
2023-05-21T05:18:56.159Z,5.25
2023-05-21T05:21:24.060Z,6.47
2023-05-21T05:23:51.534Z,5.72
2023-05-21T05:26:21.763Z,5.57
2023-05-21T05:28:49.968Z,7.13
2023-05-21T05:31:17.186Z,4.28
2023-05-21T05:33:45.188Z,7.30
2023-05-21T05:36:12.544Z,6.35
2023-05-21T05:38:40.794Z,9.27
2023-05-21T05:41:07.830Z,4.35
2023-05-21T05:43:35.853Z,4.53
2023-05-21T05:46:03.571Z,3.40
2023-05-21T05:48:31.268Z,3.20
2023-05-21T05:50:59.759Z,9.82
2023-05-21T05:53:27.395Z,3.38
2023-05-21T05:55:54.986Z,4.88
2023-05-21T05:58:23.207Z,8.65
2023-05-21T06:01:16.533Z,11.65
2023-05-21T06:03:45.654Z,6.07
2023-05-21T06:06:17.230Z,7.28
2023-05-21T06:08:47.183Z,4.57
2023-05-21T06:11:17.331Z,4.22
2023-05-21T06:13:46.348Z,5.57
2023-05-21T06:16:16.165Z,6.28
2023-05-21T06:18:43.985Z,6.63
2023-05-21T06:21:11.659Z,3.75
2023-05-21T06:23:39.542Z,4.65
2023-05-21T06:26:07.813Z,4.68
2023-05-21T06:28:35.323Z,3.67
2023-05-21T06:31:02.549Z,4.40
2023-05-21T06:33:31.973Z,4.43
2023-05-21T06:35:59.127Z,7.20
2023-05-21T06:38:26.809Z,5.03
2023-05-21T06:40:53.761Z,3.63
2023-05-21T06:43:50.474Z,3.60
2023-05-21T06:46:32.882Z,4.93
2023-05-21T06:49:01.670Z,7.25
2023-05-21T06:51:28.970Z,4.97
2023-05-21T06:53:56.536Z,6.32
2023-05-21T06:56:23.770Z,4.85
2023-05-21T06:58:54.562Z,5.68
2023-05-21T07:01:24.768Z,5.57
2023-05-21T07:03:52.218Z,9.60
2023-05-21T07:06:19.228Z,4.03
2023-05-21T07:08:48.086Z,5.15
2023-05-21T07:11:15.564Z,3.88
2023-05-21T07:13:43.057Z,3.15
2023-05-21T07:16:10.243Z,7.13
2023-05-21T07:18:39.576Z,3.67
2023-05-21T07:21:06.543Z,6.40
2023-05-21T07:23:33.804Z,7.30
2023-05-21T07:26:01.275Z,5.13
2023-05-21T07:28:28.526Z,4.68
2023-05-21T07:30:56.039Z,3.75
2023-05-21T07:33:30.772Z,4.18
2023-05-21T07:35:57.820Z,6.10
2023-05-21T07:38:26.229Z,3.63
2023-05-21T07:40:53.300Z,7.53
2023-05-21T07:43:21.587Z,2.83
2023-05-21T07:45:48.707Z,2.88
2023-05-21T07:48:16.194Z,5.15
2023-05-21T07:50:56.605Z,3.17
2023-05-21T07:53:23.969Z,6.88
2023-05-21T07:55:52.024Z,6.70
2023-05-21T07:58:24.745Z,6.28
2023-05-21T08:00:53.242Z,6.32
2023-05-21T08:03:21.118Z,4.97
2023-05-21T08:05:50.625Z,5.68
2023-05-21T08:08:19.692Z,5.40
2023-05-21T08:10:48.040Z,2.30
2023-05-21T08:13:16.792Z,4.35
2023-05-21T08:15:45.388Z,5.32
2023-05-21T08:18:12.884Z,8.25
2023-05-21T08:20:43.044Z,6.18
2023-05-21T08:23:10.740Z,5.70
2023-05-21T08:25:42.503Z,4.75
2023-05-21T08:28:11.089Z,2.67
2023-05-21T08:30:38.227Z,6.93
2023-05-21T08:33:05.530Z,3.55
2023-05-21T08:35:34.544Z,5.35
2023-05-21T08:38:10.649Z,4.50
2023-05-21T08:41:06.951Z,5.78
2023-05-21T08:43:37.255Z,7.32
2023-05-21T08:46:05.524Z,4.75
2023-05-21T08:48:37.733Z,4.90
2023-05-21T08:51:06.105Z,6.70
2023-05-21T08:53:38.606Z,3.50
2023-05-21T08:56:09.952Z,3.13
2023-05-21T08:58:49.082Z,7.43
2023-05-21T09:01:19.992Z,2.80
2023-05-21T09:03:57.081Z,5.38
2023-05-21T09:06:27.312Z,5.13
2023-05-21T09:09:06.805Z,4.18
2023-05-21T09:11:42.272Z,2.50
2023-05-21T09:14:11.725Z,5.55
2023-05-21T09:17:02.988Z,4.38
2023-05-21T09:19:32.556Z,5.53
2023-05-21T09:22:04.187Z,4.10
2023-05-21T09:24:35.060Z,7.50
2023-05-21T09:27:07.505Z,3.40
2023-05-21T09:29:35.622Z,4.90
2023-05-21T09:32:07.506Z,6.25
2023-05-21T09:34:37.329Z,3.50
2023-05-21T09:37:13.413Z,2.22
2023-05-21T09:39:47.978Z,3.70
2023-05-21T09:42:15.160Z,2.63
2023-05-21T09:44:45.831Z,4.22
2023-05-21T09:47:13.067Z,3.77
2023-05-21T09:49:44.703Z,6.35
2023-05-21T09:54:39.281Z,2.97
2023-05-21T09:57:06.886Z,3.17
2023-05-21T09:59:39.058Z,4.30
2023-05-21T10:02:21.199Z,5.03
2023-05-21T10:04:54.487Z,2.63
2023-05-21T10:07:26.411Z,7.10
2023-05-21T10:09:58.297Z,5.18
2023-05-21T10:12:27.815Z,3.85
2023-05-21T10:15:03.982Z,4.72
2023-05-21T10:17:31.788Z,4.53
2023-05-21T10:20:02.955Z,4.68
2023-05-21T10:22:31.790Z,4.32
2023-05-21T10:25:01.212Z,6.00
2023-05-21T10:27:32.293Z,3.03
2023-05-21T10:30:04.138Z,6.60
2023-05-21T10:32:32.785Z,2.97
2023-05-21T10:35:02.804Z,4.25
2023-05-21T10:37:30.594Z,5.95
2023-05-21T10:39:58.141Z,3.53
2023-05-21T10:42:31.685Z,5.88
2023-05-21T10:45:21.051Z,4.88
2023-05-21T10:47:48.274Z,7.15
2023-05-21T10:50:44.993Z,3.80
2023-05-21T10:53:33.900Z,4.82
2023-05-21T10:56:28.847Z,6.15
2023-05-21T10:59:01.844Z,5.13
2023-05-21T11:01:34.369Z,3.60
2023-05-21T11:04:02.388Z,2.83
2023-05-21T11:06:31.510Z,5.28
2023-05-21T11:09:11.497Z,3.30
2023-05-21T11:11:46.276Z,5.50
2023-05-21T11:14:26.895Z,3.78
2023-05-21T11:16:55.141Z,3.13
2023-05-21T11:19:22.558Z,8.25
2023-05-21T11:21:51.576Z,6.78
2023-05-21T11:24:20.251Z,6.63
2023-05-21T11:26:52.186Z,4.90
2023-05-21T11:29:20.476Z,5.68
2023-05-21T11:32:03.219Z,3.38
2023-05-21T11:34:41.272Z,4.60
2023-05-21T11:37:18.611Z,5.88
2023-05-21T11:39:50.615Z,3.13
2023-05-21T11:42:39.348Z,4.38
2023-05-21T11:45:07.286Z,3.28
2023-05-21T11:47:35.187Z,2.50
2023-05-21T11:50:04.204Z,10.63
2023-05-21T11:52:33.224Z,7.63
2023-05-21T11:55:02.796Z,3.67
2023-05-21T11:57:32.026Z,4.63
2023-05-21T12:00:01.817Z,5.05
2023-05-21T12:02:33.309Z,6.63
2023-05-21T12:05:00.961Z,4.32
2023-05-21T12:07:32.285Z,2.65
2023-05-21T12:10:01.355Z,8.77
2023-05-21T12:12:38.466Z,3.10
2023-05-21T12:15:13.846Z,2.95
2023-05-21T12:17:41.395Z,4.32
2023-05-21T12:20:10.829Z,4.68
2023-05-21T12:22:42.573Z,5.00
2023-05-21T12:25:11.023Z,7.40
2023-05-21T12:27:38.737Z,20.33
2023-05-21T12:30:06.833Z,6.20
2023-05-21T12:32:34.826Z,6.00
2023-05-21T12:35:03.040Z,3.45
2023-05-21T12:37:32.447Z,4.25
2023-05-21T12:40:01.461Z,6.18
2023-05-21T12:42:30.926Z,3.92
2023-05-21T12:44:58.535Z,3.05
2023-05-21T12:47:27.687Z,4.65
2023-05-21T12:50:00.350Z,4.60
2023-05-21T12:52:28.362Z,3.70
2023-05-21T12:54:57.080Z,4.38
2023-05-21T12:57:35.379Z,4.28
2023-05-21T13:00:06.702Z,7.47
2023-05-21T13:02:40.993Z,5.38
2023-05-21T13:05:17.464Z,9.98
2023-05-21T13:07:47.719Z,4.70
2023-05-21T13:10:18.601Z,3.87
2023-05-21T13:15:14.641Z,6.40
2023-05-21T13:17:42.047Z,2.70
2023-05-21T13:20:15.348Z,10.30
2023-05-21T13:22:47.186Z,2.42
2023-05-21T13:25:20.451Z,4.13
2023-05-21T13:27:49.587Z,3.97
2023-05-21T13:30:17.082Z,5.05
2023-05-21T13:32:45.005Z,2.72
2023-05-21T13:35:12.809Z,2.42
2023-05-21T13:37:40.900Z,3.08
2023-05-21T13:40:16.891Z,4.18
2023-05-21T13:42:46.518Z,3.53
2023-05-21T13:45:15.917Z,3.08
2023-05-21T13:47:44.713Z,4.30
2023-05-21T13:50:13.602Z,5.50
2023-05-21T13:52:41.272Z,7.25
2023-05-21T13:55:10.134Z,4.32
2023-05-21T13:57:39.394Z,3.63
2023-05-21T14:00:09.333Z,4.13
2023-05-21T14:02:37.686Z,5.03
2023-05-21T14:05:05.127Z,4.55
2023-05-21T14:07:33.113Z,1.92
2023-05-21T14:10:01.001Z,3.22
2023-05-21T14:12:29.248Z,4.90
2023-05-21T14:14:58.696Z,4.40
2023-05-21T14:17:27.604Z,4.53
2023-05-21T14:19:55.761Z,5.80
2023-05-21T14:22:23.468Z,2.75
2023-05-21T14:24:52.083Z,2.95
2023-05-21T14:27:19.925Z,2.78
2023-05-21T14:29:48.498Z,4.75
2023-05-21T14:32:17.382Z,3.05
2023-05-21T14:34:44.938Z,4.03
2023-05-21T14:37:13.019Z,5.97
2023-05-21T14:39:40.192Z,3.20
2023-05-21T14:42:07.649Z,4.20
2023-05-21T14:44:35.132Z,3.88
2023-05-21T14:47:02.527Z,4.63
2023-05-21T14:49:29.777Z,2.78
2023-05-21T14:52:00.457Z,3.45
2023-05-21T14:54:27.461Z,3.40
2023-05-21T14:56:55.681Z,5.82
2023-05-21T14:59:23.606Z,3.97
2023-05-21T15:01:51.419Z,2.90
2023-05-21T15:04:18.553Z,3.25
2023-05-21T15:06:46.076Z,3.53
2023-05-21T15:09:13.366Z,4.68
2023-05-21T15:11:44.018Z,3.72
2023-05-21T15:14:11.246Z,5.00
2023-05-21T15:16:39.607Z,5.38
2023-05-21T15:19:06.810Z,3.65
2023-05-21T15:21:34.099Z,2.80
2023-05-21T15:24:01.674Z,1.80
2023-05-21T15:26:29.324Z,4.80
2023-05-21T15:28:56.403Z,3.95
2023-05-21T15:31:24.320Z,9.88
2023-05-21T15:33:51.611Z,2.13
2023-05-21T15:36:19.107Z,4.55
2023-05-21T15:38:46.619Z,6.68
2023-05-21T15:41:13.571Z,6.00
2023-05-21T15:43:42.265Z,3.60
2023-05-21T15:46:09.356Z,4.13
2023-05-21T15:48:37.141Z,3.03
2023-05-21T15:51:04.695Z,2.30
2023-05-21T15:53:32.003Z,5.32
2023-05-21T15:55:59.454Z,3.30
2023-05-21T15:58:27.355Z,3.42
2023-05-21T16:00:54.556Z,4.15
2023-05-21T16:03:21.901Z,4.28
2023-05-21T16:05:49.358Z,4.30
2023-05-21T16:08:16.864Z,4.50
2023-05-21T16:10:45.998Z,3.90
2023-05-21T16:13:13.717Z,6.00
2023-05-21T16:15:41.012Z,3.65
2023-05-21T16:18:10.087Z,4.25
2023-05-21T16:20:37.308Z,6.07
2023-05-21T16:23:06.667Z,2.95
2023-05-21T16:25:35.710Z,2.83
2023-05-21T16:28:03.860Z,4.22
2023-05-21T16:30:31.003Z,3.40
2023-05-21T16:32:58.565Z,3.88
2023-05-21T16:35:26.178Z,3.13
2023-05-21T16:37:53.587Z,5.38
2023-05-21T16:40:20.961Z,7.18
2023-05-21T16:42:48.624Z,2.78
2023-05-21T16:45:20.885Z,4.60
2023-05-21T16:47:50.046Z,5.78
2023-05-21T16:50:18.784Z,6.38
2023-05-21T16:52:46.591Z,7.18
2023-05-21T16:55:13.629Z,5.82
2023-05-21T16:57:43.253Z,5.65
2023-05-21T17:00:12.059Z,7.28
2023-05-21T17:02:39.783Z,4.43
2023-05-21T17:05:07.267Z,3.20
2023-05-21T17:07:39.571Z,4.30
2023-05-21T17:10:08.218Z,6.32
2023-05-21T17:12:36.212Z,3.00
2023-05-21T17:15:04.373Z,4.75
2023-05-21T17:17:32.082Z,7.53
2023-05-21T17:20:01.576Z,8.13
2023-05-21T17:22:29.326Z,6.38
2023-05-21T17:24:56.755Z,6.57
2023-05-21T17:27:23.982Z,6.47
2023-05-21T17:29:50.947Z,4.65
2023-05-21T17:32:18.391Z,7.18
2023-05-21T17:34:45.784Z,7.47
2023-05-21T17:37:13.175Z,6.00
2023-05-21T17:39:41.226Z,4.30
2023-05-21T17:42:09.984Z,5.68
2023-05-21T17:44:37.006Z,3.67
2023-05-21T17:47:07.215Z,10.38
2023-05-21T17:49:34.251Z,7.13
2023-05-21T17:52:04.401Z,5.90
2023-05-21T17:54:31.605Z,6.72
2023-05-21T17:56:58.380Z,4.13
2023-05-21T17:59:25.637Z,4.88
2023-05-21T18:01:52.869Z,9.13
2023-05-21T18:04:20.617Z,8.27
2023-05-21T18:06:47.708Z,7.93
2023-05-21T18:09:15.647Z,7.53
2023-05-21T18:11:44.521Z,7.40
2023-05-21T18:14:12.139Z,5.93
2023-05-21T18:16:40.880Z,5.60
2023-05-21T18:19:08.482Z,3.83
2023-05-21T18:21:35.657Z,7.50
2023-05-21T18:24:04.016Z,5.88
2023-05-21T18:26:31.285Z,10.57
2023-05-21T18:28:59.246Z,9.23
2023-05-21T18:31:26.293Z,10.02
2023-05-21T18:33:53.703Z,5.30
2023-05-21T18:36:20.731Z,7.65
2023-05-21T18:38:48.480Z,5.53
2023-05-21T18:41:15.504Z,10.30
2023-05-21T18:43:42.882Z,7.60
2023-05-21T18:46:09.827Z,6.40
2023-05-21T18:48:37.447Z,7.28
2023-05-21T18:51:04.522Z,9.70
2023-05-21T18:53:32.007Z,7.00
2023-05-21T18:55:59.012Z,6.22
2023-05-21T18:58:26.284Z,9.90
2023-05-21T19:00:53.283Z,12.45
2023-05-21T19:03:20.625Z,11.50
2023-05-21T19:05:48.025Z,8.38
2023-05-21T19:08:15.226Z,7.72
2023-05-21T19:10:42.417Z,7.70
2023-05-21T19:13:09.973Z,9.90
2023-05-21T19:15:37.391Z,7.07
2023-05-21T19:18:04.994Z,8.70
2023-05-21T19:20:32.052Z,4.65
2023-05-21T19:22:59.451Z,8.30
2023-05-21T19:25:27.529Z,9.25
2023-05-21T19:27:54.872Z,6.10
2023-05-21T19:30:22.112Z,11.25
2023-05-21T19:32:49.542Z,9.77
2023-05-21T19:35:16.588Z,8.43
2023-05-21T19:37:44.159Z,7.65
2023-05-21T19:40:11.458Z,6.50
2023-05-21T19:42:39.905Z,7.95
2023-05-21T19:45:09.637Z,8.95
2023-05-21T19:47:37.093Z,8.48
2023-05-21T19:50:04.446Z,10.63
2023-05-21T19:52:32.048Z,6.13
2023-05-21T19:55:04.887Z,8.60
2023-05-21T19:57:32.712Z,8.77
2023-05-21T20:00:01.068Z,8.68
2023-05-21T20:02:28.860Z,6.53
2023-05-21T20:04:57.736Z,14.43
2023-05-21T20:07:25.234Z,13.85
2023-05-21T20:09:52.566Z,16.52
2023-05-21T20:12:19.695Z,7.38
2023-05-21T20:14:47.591Z,11.02
2023-05-21T20:17:15.314Z,17.05
2023-05-21T20:19:44.105Z,11.50
2023-05-21T20:22:11.705Z,11.68
2023-05-21T20:24:38.712Z,13.00
2023-05-21T20:27:06.096Z,14.68
2023-05-21T20:29:33.280Z,11.27
2023-05-21T20:32:00.818Z,10.00
2023-05-21T20:34:28.365Z,11.90
2023-05-21T20:36:58.541Z,14.40
2023-05-21T20:39:27.833Z,10.15
2023-05-21T20:41:56.072Z,10.57
2023-05-21T20:44:23.096Z,15.82
2023-05-21T20:46:50.538Z,12.75
2023-05-21T20:49:17.857Z,13.13
2023-05-21T20:51:45.746Z,10.70
2023-05-21T20:54:12.916Z,12.88
2023-05-21T20:56:42.714Z,15.35
2023-05-21T20:59:11.362Z,14.35
2023-05-21T21:01:40.726Z,9.27
2023-05-21T21:04:08.979Z,10.43
2023-05-21T21:06:38.578Z,20.15
2023-05-21T21:09:06.231Z,10.32
2023-05-21T21:11:33.526Z,9.02
2023-05-21T21:14:02.635Z,10.95
2023-05-21T21:16:30.098Z,9.88
2023-05-21T21:18:57.278Z,11.35
2023-05-21T21:21:25.323Z,10.32
2023-05-21T21:23:52.433Z,10.02
2023-05-21T21:26:19.754Z,8.25
2023-05-21T21:28:46.858Z,7.22
2023-05-21T21:31:14.319Z,8.10
2023-05-21T21:33:41.708Z,11.75
2023-05-21T21:36:12.401Z,15.38
2023-05-21T21:38:39.665Z,16.55
2023-05-21T21:41:07.800Z,10.70
2023-05-21T21:43:34.864Z,14.25
2023-05-21T21:46:02.155Z,14.68
2023-05-21T21:48:29.507Z,14.30
2023-05-21T21:50:57.078Z,12.63
2023-05-21T21:53:24.074Z,16.05
2023-05-21T21:55:51.589Z,14.23
2023-05-21T21:58:19.036Z,8.80
2023-05-21T22:00:46.437Z,13.07
2023-05-21T22:03:14.659Z,11.15
2023-05-21T22:05:42.714Z,11.30
2023-05-21T22:08:09.784Z,11.88
2023-05-21T22:10:38.568Z,7.25
2023-05-21T22:13:06.073Z,11.75
2023-05-21T22:15:33.696Z,12.23
2023-05-21T22:18:02.512Z,7.88
2023-05-21T22:20:30.632Z,12.02
2023-05-21T22:22:58.096Z,11.40
2023-05-21T22:25:25.776Z,9.25
2023-05-21T22:27:52.748Z,9.75
2023-05-21T22:30:20.388Z,10.23
2023-05-21T22:32:47.880Z,8.35
2023-05-21T22:35:15.314Z,12.77
2023-05-21T22:37:42.399Z,10.65
2023-05-21T22:40:10.428Z,14.13
2023-05-21T22:42:38.073Z,9.05
2023-05-21T22:45:06.808Z,13.90
2023-05-21T22:47:36.958Z,10.60
2023-05-21T22:50:04.719Z,9.68
2023-05-21T22:52:32.059Z,15.38
2023-05-21T22:55:00.706Z,11.02
2023-05-21T22:57:28.133Z,10.65
2023-05-21T22:59:55.450Z,8.68
2023-05-21T23:02:22.784Z,11.68
2023-05-21T23:04:50.473Z,10.32
2023-05-21T23:07:17.514Z,10.25
2023-05-21T23:09:44.835Z,14.65
2023-05-21T23:12:12.201Z,10.98
2023-05-21T23:14:39.461Z,9.52
2023-05-21T23:17:07.547Z,15.63
2023-05-21T23:19:34.867Z,10.90
2023-05-21T23:22:02.213Z,14.00
2023-05-21T23:24:29.888Z,14.75
2023-05-21T23:27:01.996Z,9.80
2023-05-21T23:29:30.587Z,11.35
2023-05-21T23:31:57.952Z,10.88
2023-05-21T23:34:25.737Z,8.55
2023-05-21T23:36:53.009Z,9.43
2023-05-21T23:39:20.939Z,11.68
2023-05-21T23:41:48.318Z,11.93
2023-05-21T23:44:15.690Z,10.57
2023-05-21T23:46:43.120Z,11.50
2023-05-21T23:49:10.603Z,9.45
2023-05-21T23:51:38.338Z,15.80
2023-05-21T23:54:06.087Z,11.50
2023-05-21T23:56:33.670Z,12.90
2023-05-21T23:59:00.829Z,8.68
